Raisin City, CA

5:39 AM PDT on May 23, 2015 (GMT -0700)
GFWS45 | | Change Station
CLOSE
Current Station
Personal Weather Station
Location: Raisin City, CA
Elevation: 223 ft
Nearby Weather Stations

Elev 223 ft 36.63 °N, 119.97 °W | Updated 7 minutes ago

Overcast
Overcast
56.8 °F
Feels Like 56.8 °F
N
0.0
Wind Variable Wind from WNW
Gusts 3.0 mph

Today
High -- | Low -- °F
--% Chance of Precip.
Yesterday
High -- | Low -- °F
Precip. -- in
5:46 AM 8:06 PM
Waxing Crescent, 29% visible
Pressure 30.03 in
Visibility 10.0 miles
Clouds Few 7000 ft
Scattered Clouds 9500 ft
Mostly Cloudy 12000 ft
Dew Point 52 °F
Humidity 84%
Rainfall 0.00 in
Snow Depth Not available.
UV 0 out of 12
Pollen 5.60 out of 12
Air Quality Not available.
Flu Activity Sporadic
METAR KFAT 231153Z 33004KT 10SM FEW070 SCT095 BKN120 14/10 A3004 RMK AO2 SLP168 T01440100 10183 20144 53001

More Conditions Fewer Conditions

Pressure 30.03 in
Visibility 10.0 miles
Clouds Few 7000 ft
Scattered Clouds 9500 ft
Mostly Cloudy 12000 ft
Dew Point 52 °F
Humidity 84%
Rainfall 0.00 in
Snow Depth Not available.
UV 0 out of 12
Pollen 5.60 out of 12
Air Quality Not available.
Flu Activity Sporadic
METAR KFAT 231153Z 33004KT 10SM FEW070 SCT095 BKN120 14/10 A3004 RMK AO2 SLP168 T01440100 10183 20144 53001

More Conditions Fewer Conditions

10-Day Weather Forecast

Almanac

Astronomy

May. 23, 2015 Rise Set
Actual Time
Civil Twilight
Nautical Twilight
Astronomical Twilight
Moon
Length of Visible Light
Length of Day
Tomorrow will be .
, % of the Moon is Illuminated

Today's Extremes

State Highs State Lows

Community

WunderPhotos

Upload Photos

1,823,441 photos uploaded!

WunderBlogs® & News

Nearby

Air Quality

  Air Quality AQ Index Pollutant
Not available.

Snow Depth

Station Depth Elevation

Earthquake Activity

City Distance Mag. Time & Date
Minimum magnitude displayed is 2.5.

Coastal Water Temperatures

Place Temperature

Stations

Nearby Weather Stations

Station Location Temp. Windchill Dew Point Humidity Wind Precip. Elev Updated Type